sensor_id;sensor_type;location;lat;lon;timestamp;pressure;altitude;pressure_sealevel;temperature;humidity
57799;BME280;43626;53.866;30.298;2023-05-01T00:01:35;1020.8;;;8.4;56
57799;BME280;43626;53.866;30.298;2023-05-01T00:06:47;1020.8;;;8.4;55.6
57799;BME280;43626;53.866;30.298;2023-05-01T00:12:03;1020.8;;;8.2;55.8
57799;BME280;43626;53.866;30.298;2023-05-01T00:16:25;1020.9;;;8.1;55.7
57799;BME280;43626;53.866;30.298;2023-05-01T00:21:37;1021;;;8.1;55.2
57799;BME280;43626;53.866;30.298;2023-05-01T00:26:15;1021;;;7.9;55
57799;BME280;43626;53.866;30.298;2023-05-01T00:31:59;1021.1;;;7.7;54.8
57799;BME280;43626;53.866;30.298;2023-05-01T00:36:37;1021.1;;;7.6;54.7
57799;BME280;43626;53.866;30.298;2023-05-01T00:41:15;1021.1;;;7.5;54.5
57799;BME280;43626;53.866;30.298;2023-05-01T00:46:45;1021.2;;;7.4;54.8
57799;BME280;43626;53.866;30.298;2023-05-01T00:51:41;1021.3;;;7.4;54.9
57799;BME280;43626;53.866;30.298;2023-05-01T00:56:21;1021.3;;;7.3;54.9
57799;BME280;43626;53.866;30.298;2023-05-01T01:01:27;1021.3;;;7.2;55.1
57799;BME280;43626;53.866;30.298;2023-05-01T01:07:02;1021.4;;;7.1;55.4
57799;BME280;43626;53.866;30.298;2023-05-01T01:11:29;1021.4;;;7.1;55.3
57799;BME280;43626;53.866;30.298;2023-05-01T01:16:47;1021.5;;;7.1;55.3
57799;BME280;43626;53.866;30.298;2023-05-01T01:21:43;1021.5;;;7.1;55.4
57799;BME280;43626;53.866;30.298;2023-05-01T01:26:50;1021.6;;;7.1;55.4
57799;BME280;43626;53.866;30.298;2023-05-01T01:31:38;1021.6;;;7.1;55.3
57799;BME280;43626;53.866;30.298;2023-05-01T01:36:59;1021.7;;;7;55.4
57799;BME280;43626;53.866;30.298;2023-05-01T01:41:59;1021.7;;;7;55.8
57799;BME280;43626;53.866;30.298;2023-05-01T01:47:03;1021.7;;;7;56
57799;BME280;43626;53.866;30.298;2023-05-01T01:51:17;1021.7;;;7;56
57799;BME280;43626;53.866;30.298;2023-05-01T01:57:00;1021.8;;;6.9;56.2
57799;BME280;43626;53.866;30.298;2023-05-01T02:01:39;1021.8;;;6.9;56.5
57799;BME280;43626;53.866;30.298;2023-05-01T02:06:41;1021.9;;;6.9;56.5
57799;BME280;43626;53.866;30.298;2023-05-01T02:11:47;1022;;;7;56.2
57799;BME280;43626;53.866;30.298;2023-05-01T02:17:01;1022.2;;;7;55.9
57799;BME280;43626;53.866;30.298;2023-05-01T02:21:29;1022.3;;;6.7;56
57799;BME280;43626;53.866;30.298;2023-05-01T02:27:02;1022.3;;;6.5;56.3
57799;BME280;43626;53.866;30.298;2023-05-01T02:31:59;1022.4;;;6.3;56.5
57799;BME280;43626;53.866;30.298;2023-05-01T02:36:35;1022.4;;;6.2;57.1
57799;BME280;43626;53.866;30.298;2023-05-01T02:41:23;1022.4;;;6.1;57.6
57799;BME280;43626;53.866;30.298;2023-05-01T02:46:29;1022.5;;;6;57.9
57799;BME280;43626;53.866;30.298;2023-05-01T02:51:15;1022.6;;;5.9;58.3
57799;BME280;43626;53.866;30.298;2023-05-01T02:56:53;1022.6;;;5.9;58.4
57799;BME280;43626;53.866;30.298;2023-05-01T03:01:47;1022.7;;;6;57.9
57799;BME280;43626;53.866;30.298;2023-05-01T03:06:29;1022.8;;;6;57.4
57799;BME280;43626;53.866;30.298;2023-05-01T03:11:59;1022.8;;;6.1;57.2
57799;BME280;43626;53.866;30.298;2023-05-01T03:16:59;1022.9;;;6.1;57.1
57799;BME280;43626;53.866;30.298;2023-05-01T03:21:31;1023;;;6.1;57.1
57799;BME280;43626;53.866;30.298;2023-05-01T03:26:35;1023;;;6.3;56.8
57799;BME280;43626;53.866;30.298;2023-05-01T03:31:27;1023;;;6.3;56.5
57799;BME280;43626;53.866;30.298;2023-05-01T03:36:57;1023.1;;;6.3;56.3
57799;BME280;43626;53.866;30.298;2023-05-01T03:41:37;1023.2;;;6.4;56.3
57799;BME280;43626;53.866;30.298;2023-05-01T03:46:25;1023.2;;;6.5;55.6
57799;BME280;43626;53.866;30.298;2023-05-01T03:51:59;1023.2;;;6.5;55.1
57799;BME280;43626;53.866;30.298;2023-05-01T03:56:29;1023.3;;;6.5;54.9
57799;BME280;43626;53.866;30.298;2023-05-01T04:01:27;1023.3;;;6.7;54.5
57799;BME280;43626;53.866;30.298;2023-05-01T04:06:31;1023.4;;;6.8;54.1
57799;BME280;43626;53.866;30.298;2023-05-01T04:12:01;1023.3;;;6.8;53.8
57799;BME280;43626;53.866;30.298;2023-05-01T04:16:39;1023.4;;;7;53.5
57799;BME280;43626;53.866;30.298;2023-05-01T04:21:59;1023.4;;;7.2;53.3
57799;BME280;43626;53.866;30.298;2023-05-01T04:27:01;1023.4;;;7.3;52.5
57799;BME280;43626;53.866;30.298;2023-05-01T04:31:59;1023.5;;;7.3;51.4
57799;BME280;43626;53.866;30.298;2023-05-01T04:36:37;1023.6;;;7.3;51
57799;BME280;43626;53.866;30.298;2023-05-01T04:41:49;1023.6;;;7.4;50.8
57799;BME280;43626;53.866;30.298;2023-05-01T04:46:43;1023.6;;;7.5;50
57799;BME280;43626;53.866;30.298;2023-05-01T04:51:51;1023.7;;;7.5;49.8
57799;BME280;43626;53.866;30.298;2023-05-01T04:56:21;1023.7;;;7.5;49
57799;BME280;43626;53.866;30.298;2023-05-01T05:01:59;1023.7;;;7.5;48.9
57799;BME280;43626;53.866;30.298;2023-05-01T05:06:51;1023.8;;;7.6;48.3
57799;BME280;43626;53.866;30.298;2023-05-01T05:11:25;1023.9;;;7.6;47.8
57799;BME280;43626;53.866;30.298;2023-05-01T05:16:31;1023.9;;;7.6;47.5
57799;BME280;43626;53.866;30.298;2023-05-01T05:22:00;1023.9;;;7.6;45.8
57799;BME280;43626;53.866;30.298;2023-05-01T05:26:29;1024;;;7.7;44.1
57799;BME280;43626;53.866;30.298;2023-05-01T05:31:49;1024;;;7.5;42.8
57799;BME280;43626;53.866;30.298;2023-05-01T05:36:59;1024.1;;;7.6;43.1
57799;BME280;43626;53.866;30.298;2023-05-01T05:41:25;1024.1;;;7.7;43.5
57799;BME280;43626;53.866;30.298;2023-05-01T05:46:43;1024.1;;;7.9;42.8
57799;BME280;43626;53.866;30.298;2023-05-01T05:51:29;1024.2;;;8.1;42.9
57799;BME280;43626;53.866;30.298;2023-05-01T05:56:27;1024.3;;;8.2;42.6
57799;BME280;43626;53.866;30.298;2023-05-01T06:01:53;1024.4;;;8.2;42
57799;BME280;43626;53.866;30.298;2023-05-01T06:06:29;1024.4;;;8.1;41.9
57799;BME280;43626;53.866;30.298;2023-05-01T06:11:25;1024.4;;;8.1;40.7
57799;BME280;43626;53.866;30.298;2023-05-01T06:16:45;1024.5;;;8.1;39.8
57799;BME280;43626;53.866;30.298;2023-05-01T06:21:59;1024.5;;;8.1;39.6
57799;BME280;43626;53.866;30.298;2023-05-01T06:26:31;1024.5;;;8;39.9
57799;BME280;43626;53.866;30.298;2023-05-01T06:31:35;1024.6;;;8.1;40.1
57799;BME280;43626;53.866;30.298;2023-05-01T06:36:37;1024.7;;;8.4;40.3
57799;BME280;43626;53.866;30.298;2023-05-01T06:42:01;1024.7;;;8.6;40.3
57799;BME280;43626;53.866;30.298;2023-05-01T06:46:37;1024.8;;;8.5;40.5
57799;BME280;43626;53.866;30.298;2023-05-01T06:51:27;1024.7;;;8.6;41
57799;BME280;43626;53.866;30.298;2023-05-01T06:57:01;1024.9;;;8.7;40.9
57799;BME280;43626;53.866;30.298;2023-05-01T07:01:15;1025;;;8.6;39.7
57799;BME280;43626;53.866;30.298;2023-05-01T07:06:25;1024.9;;;8.5;39.4
57799;BME280;43626;53.866;30.298;2023-05-01T07:11:33;1025;;;8.6;39.1
57799;BME280;43626;53.866;30.298;2023-05-01T07:17:01;1025;;;8.7;38.5
57799;BME280;43626;53.866;30.298;2023-05-01T07:21:27;1025.1;;;8.7;38.2
57799;BME280;43626;53.866;30.298;2023-05-01T07:26:59;1025.2;;;8.7;38
57799;BME280;43626;53.866;30.298;2023-05-01T07:31:49;1025.2;;;8.7;38.3
57799;BME280;43626;53.866;30.298;2023-05-01T07:36:15;1025.2;;;8.8;38
57799;BME280;43626;53.866;30.298;2023-05-01T07:41:37;1025.2;;;8.9;37.8
57799;BME280;43626;53.866;30.298;2023-05-01T07:46:49;1025.3;;;9.1;38.2
57799;BME280;43626;53.866;30.298;2023-05-01T07:51:33;1025.3;;;9.3;38.3
57799;BME280;43626;53.866;30.298;2023-05-01T07:57:01;1025.3;;;9.4;38.1
57799;BME280;43626;53.866;30.298;2023-05-01T08:01:27;1025.3;;;9.5;38.5
57799;BME280;43626;53.866;30.298;2023-05-01T08:07:01;1025.4;;;9.7;37.7
57799;BME280;43626;53.866;30.298;2023-05-01T08:11:45;1025.4;;;9.7;37.5
57799;BME280;43626;53.866;30.298;2023-05-01T08:16:15;1025.5;;;9.6;37
57799;BME280;43626;53.866;30.298;2023-05-01T08:21:15;1025.5;;;9.7;37.1
57799;BME280;43626;53.866;30.298;2023-05-01T08:27:01;1025.5;;;9.9;36
57799;BME280;43626;53.866;30.298;2023-05-01T08:31:27;1025.5;;;9.9;36
57799;BME280;43626;53.866;30.298;2023-05-01T08:36:49;1025.6;;;10;36.1
57799;BME280;43626;53.866;30.298;2023-05-01T08:41:49;1025.7;;;10.2;36
57799;BME280;43626;53.866;30.298;2023-05-01T08:46:28;1025.8;;;10.2;35
57799;BME280;43626;53.866;30.298;2023-05-01T08:51:39;1025.7;;;10.2;34.9
57799;BME280;43626;53.866;30.298;2023-05-01T08:56:41;1025.9;;;10.4;33.7
57799;BME280;43626;53.866;30.298;2023-05-01T09:01:27;1025.8;;;10.2;33.1
57799;BME280;43626;53.866;30.298;2023-05-01T09:06:53;1025.8;;;10.2;32.8
57799;BME280;43626;53.866;30.298;2023-05-01T09:12:04;1025.9;;;10.1;31.9
57799;BME280;43626;53.866;30.298;2023-05-01T09:16:33;1025.9;;;10.1;31.8
57799;BME280;43626;53.866;30.298;2023-05-01T09:21:39;1025.9;;;10.3;32.2
57799;BME280;43626;53.866;30.298;2023-05-01T09:26:53;1026;;;10.4;31.9
57799;BME280;43626;53.866;30.298;2023-05-01T09:31:49;1026;;;10.6;32.1
57799;BME280;43626;53.866;30.298;2023-05-01T09:36:37;1026;;;10.7;32
57799;BME280;43626;53.866;30.298;2023-05-01T09:41:50;1026;;;10.9;31.8
57799;BME280;43626;53.866;30.298;2023-05-01T09:47:01;1026;;;11;30.7
57799;BME280;43626;53.866;30.298;2023-05-01T09:52:09;1026;;;11;29.1
57799;BME280;43626;53.866;30.298;2023-05-01T09:56:15;1026;;;11.1;28
57799;BME280;43626;53.866;30.298;2023-05-01T10:02:01;1026;;;11;27
57799;BME280;43626;53.866;30.298;2023-05-01T10:06:53;1026;;;11;27.5
57799;BME280;43626;53.866;30.298;2023-05-01T10:11:29;1026;;;11.1;27.7
57799;BME280;43626;53.866;30.298;2023-05-01T10:16:34;1026;;;11.2;27.4
57799;BME280;43626;53.866;30.298;2023-05-01T10:21:51;1026.1;;;11.3;26.7
57799;BME280;43626;53.866;30.298;2023-05-01T10:26:25;1026;;;11.4;27.5
57799;BME280;43626;53.866;30.298;2023-05-01T10:31:41;1026.1;;;11.5;27.6
57799;BME280;43626;53.866;30.298;2023-05-01T10:37:03;1026.1;;;11.5;27.6
57799;BME280;43626;53.866;30.298;2023-05-01T10:41:59;1026.1;;;11.5;27.9
57799;BME280;43626;53.866;30.298;2023-05-01T10:46:35;1026;;;11.7;28
57799;BME280;43626;53.866;30.298;2023-05-01T10:51:57;1026.1;;;11.8;27.7
57799;BME280;43626;53.866;30.298;2023-05-01T10:56:39;1026.1;;;11.9;28.1
57799;BME280;43626;53.866;30.298;2023-05-01T11:01:53;1026;;;12;27.3
57799;BME280;43626;53.866;30.298;2023-05-01T11:06:24;1026.1;;;12.2;27.3
57799;BME280;43626;53.866;30.298;2023-05-01T11:11:43;1026.2;;;12.3;27.6
57799;BME280;43626;53.866;30.298;2023-05-01T11:17:01;1026.2;;;12.5;27.7
57799;BME280;43626;53.866;30.298;2023-05-01T11:21:59;1026.1;;;12.4;26.9
57799;BME280;43626;53.866;30.298;2023-05-01T11:26:21;1026.1;;;12.6;27.6
57799;BME280;43626;53.866;30.298;2023-05-01T11:31:38;1026.1;;;12.8;27.6
57799;BME280;43626;53.866;30.298;2023-05-01T11:36:15;1026.1;;;12.9;27
57799;BME280;43626;53.866;30.298;2023-05-01T11:42:05;1026.1;;;12.9;27.3
57799;BME280;43626;53.866;30.298;2023-05-01T11:46:26;1026.1;;;13.1;26.7
57799;BME280;43626;53.866;30.298;2023-05-01T11:51:15;1026.1;;;13;24.5
57799;BME280;43626;53.866;30.298;2023-05-01T11:57:01;1026.1;;;13;25.3
57799;BME280;43626;53.866;30.298;2023-05-01T12:01:42;1026.1;;;13.1;24.9
57799;BME280;43626;53.866;30.298;2023-05-01T12:06:21;1026;;;13.2;24.8
57799;BME280;43626;53.866;30.298;2023-05-01T12:11:27;1026;;;13.2;24.8
57799;BME280;43626;53.866;30.298;2023-05-01T12:16:41;1026.1;;;13.4;24.9
57799;BME280;43626;53.866;30.298;2023-05-01T12:21:27;1026.1;;;13.6;24.9
57799;BME280;43626;53.866;30.298;2023-05-01T12:27:01;1026.1;;;13.7;24.5
57799;BME280;43626;53.866;30.298;2023-05-01T12:32:01;1026;;;13.8;24.2
57799;BME280;43626;53.866;30.298;2023-05-01T12:36:15;1026;;;13.9;24.1
57799;BME280;43626;53.866;30.298;2023-05-01T12:41:15;1025.9;;;14;24.1
57799;BME280;43626;53.866;30.298;2023-05-01T12:46:17;1026;;;14.2;22.9
57799;BME280;43626;53.866;30.298;2023-05-01T12:51:59;1026.1;;;14.3;22.2
57799;BME280;43626;53.866;30.298;2023-05-01T12:56:51;1026.1;;;14.4;22.3
57799;BME280;43626;53.866;30.298;2023-05-01T13:01:27;1026;;;14.4;22.1
57799;BME280;43626;53.866;30.298;2023-05-01T13:07:00;1026;;;14.6;21.2
57799;BME280;43626;53.866;30.298;2023-05-01T13:12:00;1026.1;;;14.5;20.9
57799;BME280;43626;53.866;30.298;2023-05-01T13:16:29;1026.2;;;14.4;21.9
57799;BME280;43626;53.866;30.298;2023-05-01T13:21:34;1026.3;;;14.5;22.3
57799;BME280;43626;53.866;30.298;2023-05-01T13:27:01;1026.2;;;14.8;21.9
57799;BME280;43626;53.866;30.298;2023-05-01T13:31:15;1026.2;;;14.9;21.7
57799;BME280;43626;53.866;30.298;2023-05-01T13:36:36;1026.2;;;15;21.9
57799;BME280;43626;53.866;30.298;2023-05-01T13:42:01;1026.2;;;15.2;20.6
57799;BME280;43626;53.866;30.298;2023-05-01T13:46:38;1026.2;;;15.2;19.6
57799;BME280;43626;53.866;30.298;2023-05-01T13:52:02;1026.3;;;14.8;18.8
57799;BME280;43626;53.866;30.298;2023-05-01T13:56:53;1026.3;;;14.7;19.5
57799;BME280;43626;53.866;30.298;2023-05-01T14:01:35;1026.3;;;14.7;18.8
57799;BME280;43626;53.866;30.298;2023-05-01T14:06:53;1026.3;;;14.7;18.7
57799;BME280;43626;53.866;30.298;2023-05-01T14:11:42;1026.4;;;14.7;19.4
57799;BME280;43626;53.866;30.298;2023-05-01T14:17:02;1026.3;;;14.8;19.6
57799;BME280;43626;53.866;30.298;2023-05-01T14:21:39;1026.3;;;15;19.6
57799;BME280;43626;53.866;30.298;2023-05-01T14:27:02;1026.2;;;15.3;19.7
57799;BME280;43626;53.866;30.298;2023-05-01T14:31:28;1026.2;;;15.3;19.6
57799;BME280;43626;53.866;30.298;2023-05-01T14:36:26;1026.3;;;15.3;20.1
57799;BME280;43626;53.866;30.298;2023-05-01T14:41:28;1026.3;;;15.5;19.6
57799;BME280;43626;53.866;30.298;2023-05-01T14:47:02;1026.3;;;15.6;19.2
57799;BME280;43626;53.866;30.298;2023-05-01T14:51:26;1026.3;;;15.6;19.2
57799;BME280;43626;53.866;30.298;2023-05-01T14:56:26;1026.3;;;15.7;19.5
57799;BME280;43626;53.866;30.298;2023-05-01T15:02:00;1026.3;;;15.9;19.8
57799;BME280;43626;53.866;30.298;2023-05-01T15:06:42;1026.4;;;16.1;19.8
57799;BME280;43626;53.866;30.298;2023-05-01T15:11:32;1026.4;;;16.3;19.8
57799;BME280;43626;53.866;30.298;2023-05-01T15:16:34;1026.4;;;16.5;19.8
57799;BME280;43626;53.866;30.298;2023-05-01T15:22:02;1026.4;;;16.8;19.7
57799;BME280;43626;53.866;30.298;2023-05-01T15:26:16;1026.4;;;17.2;19.5
57799;BME280;43626;53.866;30.298;2023-05-01T15:32:02;1026.4;;;17.2;19.2
57799;BME280;43626;53.866;30.298;2023-05-01T15:37:02;1026.5;;;17.2;18.9
57799;BME280;43626;53.866;30.298;2023-05-01T15:41:16;1026.5;;;17.1;18.3
57799;BME280;43626;53.866;30.298;2023-05-01T15:46:26;1026.5;;;17.1;19.1
57799;BME280;43626;53.866;30.298;2023-05-01T15:52:02;1026.6;;;17.5;18.4
57799;BME280;43626;53.866;30.298;2023-05-01T15:56:52;1026.6;;;17.9;18.5
57799;BME280;43626;53.866;30.298;2023-05-01T16:01:52;1026.6;;;18.5;18.4
57799;BME280;43626;53.866;30.298;2023-05-01T16:06:42;1026.6;;;19.3;17.9
57799;BME280;43626;53.866;30.298;2023-05-01T16:12:04;1026.7;;;20;17.6
57799;BME280;43626;53.866;30.298;2023-05-01T16:16:18;1026.8;;;20.4;17.2
57799;BME280;43626;53.866;30.298;2023-05-01T16:21:26;1026.8;;;20.4;17.1
57799;BME280;43626;53.866;30.298;2023-05-01T16:26:28;1026.8;;;20.5;16.9
57799;BME280;43626;53.866;30.298;2023-05-01T16:32:02;1026.8;;;20.3;16.2
57799;BME280;43626;53.866;30.298;2023-05-01T16:36:16;1026.8;;;19.6;16.7
57799;BME280;43626;53.866;30.298;2023-05-01T16:41:24;1026.9;;;18.4;17.6
57799;BME280;43626;53.866;30.298;2023-05-01T16:46:50;1026.9;;;17.2;18.4
57799;BME280;43626;53.866;30.298;2023-05-01T16:51:26;1027;;;16.4;18.9
57799;BME280;43626;53.866;30.298;2023-05-01T16:56:46;1027;;;15.7;19.7
57799;BME280;43626;53.866;30.298;2023-05-01T17:01:42;1027;;;15.4;20.1
57799;BME280;43626;53.866;30.298;2023-05-01T17:06:28;1027.1;;;15.1;20.5
57799;BME280;43626;53.866;30.298;2023-05-01T17:11:54;1027.1;;;15.2;20.6
57799;BME280;43626;53.866;30.298;2023-05-01T17:17:02;1027.1;;;15.9;20.3
57799;BME280;43626;53.866;30.298;2023-05-01T17:21:16;1027.2;;;16.4;20.3
57799;BME280;43626;53.866;30.298;2023-05-01T17:26:46;1027.2;;;15.8;22.6
57799;BME280;43626;53.866;30.298;2023-05-01T17:31:54;1027.3;;;15.2;25.3
57799;BME280;43626;53.866;30.298;2023-05-01T17:37:02;1027.4;;;14.6;26.4
57799;BME280;43626;53.866;30.298;2023-05-01T17:41:16;1027.4;;;14.1;28.4
57799;BME280;43626;53.866;30.298;2023-05-01T17:46:48;1027.5;;;13.8;29.6
57799;BME280;43626;53.866;30.298;2023-05-01T17:52:02;1027.6;;;13.4;30.7
57799;BME280;43626;53.866;30.298;2023-05-01T17:57:02;1027.6;;;13;30.5
57799;BME280;43626;53.866;30.298;2023-05-01T18:01:48;1027.7;;;12.7;30.7
57799;BME280;43626;53.866;30.298;2023-05-01T18:07:04;1027.7;;;12.5;31.5
57799;BME280;43626;53.866;30.298;2023-05-01T18:11:54;1027.7;;;12.2;32.6
57799;BME280;43626;53.866;30.298;2023-05-01T18:16:16;1027.7;;;12;33.5
57799;BME280;43626;53.866;30.298;2023-05-01T18:21:24;1027.8;;;11.8;34.6
57799;BME280;43626;53.866;30.298;2023-05-01T18:27:04;1027.8;;;11.5;37.5
57799;BME280;43626;53.866;30.298;2023-05-01T18:31:42;1027.9;;;11.3;38.4
57799;BME280;43626;53.866;30.298;2023-05-01T18:36:50;1027.9;;;11.1;39.1
57799;BME280;43626;53.866;30.298;2023-05-01T18:42:02;1028;;;10.9;39.9
57799;BME280;43626;53.866;30.298;2023-05-01T18:46:38;1028.1;;;10.8;40.5
57799;BME280;43626;53.866;30.298;2023-05-01T18:51:16;1028.1;;;10.6;40
57799;BME280;43626;53.866;30.298;2023-05-01T18:57:02;1028.1;;;10.5;40.1
57799;BME280;43626;53.866;30.298;2023-05-01T19:01:16;1028.1;;;10.3;40.1
57799;BME280;43626;53.866;30.298;2023-05-01T19:06:18;1028.1;;;10.2;40.2
57799;BME280;43626;53.866;30.298;2023-05-01T19:11:30;1028.1;;;10.1;40.4
57799;BME280;43626;53.866;30.298;2023-05-01T19:16:34;1028.2;;;10;40.9
57799;BME280;43626;53.866;30.298;2023-05-01T19:21:40;1028.2;;;9.9;42.2
57799;BME280;43626;53.866;30.298;2023-05-01T19:27:04;1028.2;;;9.9;43.1
57799;BME280;43626;53.866;30.298;2023-05-01T19:31:26;1028.3;;;9.7;43.4
57799;BME280;43626;53.866;30.298;2023-05-01T19:36:38;1028.3;;;9.5;44
57799;BME280;43626;53.866;30.298;2023-05-01T19:41:16;1028.4;;;9.4;44.7
57799;BME280;43626;53.866;30.298;2023-05-01T19:47:02;1028.4;;;9.4;44.5
57799;BME280;43626;53.866;30.298;2023-05-01T19:51:54;1028.4;;;9.3;44.1
57799;BME280;43626;53.866;30.298;2023-05-01T19:56:28;1028.4;;;9.2;44.3
57799;BME280;43626;53.866;30.298;2023-05-01T20:02:02;1028.5;;;9.1;44.6
57799;BME280;43626;53.866;30.298;2023-05-01T20:06:42;1028.5;;;9.1;44.6
57799;BME280;43626;53.866;30.298;2023-05-01T20:11:16;1028.5;;;9;45
57799;BME280;43626;53.866;30.298;2023-05-01T20:16:34;1028.5;;;8.9;45.7
57799;BME280;43626;53.866;30.298;2023-05-01T20:22:00;1028.5;;;8.7;46
57799;BME280;43626;53.866;30.298;2023-05-01T20:26:16;1028.6;;;8.6;46.3
57799;BME280;43626;53.866;30.298;2023-05-01T20:32:02;1028.7;;;8.5;46.8
57799;BME280;43626;53.866;30.298;2023-05-01T20:37:02;1028.7;;;8.4;47
57799;BME280;43626;53.866;30.298;2023-05-01T20:41:38;1028.8;;;8.3;46.9
57799;BME280;43626;53.866;30.298;2023-05-01T20:46:26;1028.8;;;8.3;46.3
57799;BME280;43626;53.866;30.298;2023-05-01T20:51:50;1028.8;;;8.2;46.4
57799;BME280;43626;53.866;30.298;2023-05-01T20:56:46;1028.8;;;8.1;46.5
57799;BME280;43626;53.866;30.298;2023-05-01T21:01:54;1028.9;;;8.1;46.6
57799;BME280;43626;53.866;30.298;2023-05-01T21:06:42;1028.9;;;8;46.7
57799;BME280;43626;53.866;30.298;2023-05-01T21:12:02;1028.9;;;8;47.2
57799;BME280;43626;53.866;30.298;2023-05-01T21:16:56;1028.9;;;7.9;47.9
57799;BME280;43626;53.866;30.298;2023-05-01T21:21:26;1028.9;;;7.8;48.4
57799;BME280;43626;53.866;30.298;2023-05-01T21:26:34;1029;;;7.7;48.5
57799;BME280;43626;53.866;30.298;2023-05-01T21:31:46;1029;;;7.6;48.4
57799;BME280;43626;53.866;30.298;2023-05-01T21:36:41;1029.1;;;7.5;48.5
57799;BME280;43626;53.866;30.298;2023-05-01T21:41:48;1029.1;;;7.5;48.4
57799;BME280;43626;53.866;30.298;2023-05-01T21:46:50;1029.1;;;7.5;48.2
57799;BME280;43626;53.866;30.298;2023-05-01T21:51:26;1029.2;;;7.4;48.2
57799;BME280;43626;53.866;30.298;2023-05-01T21:56:38;1029.2;;;7.4;48.3
57799;BME280;43626;53.866;30.298;2023-05-01T22:01:42;1029.3;;;7.3;48.4
57799;BME280;43626;53.866;30.298;2023-05-01T22:06:28;1029.3;;;7.3;48.7
57799;BME280;43626;53.866;30.298;2023-05-01T22:11:40;1029.3;;;7.2;49.3
57799;BME280;43626;53.866;30.298;2023-05-01T22:16:42;1029.4;;;7.1;49.7
57799;BME280;43626;53.866;30.298;2023-05-01T22:21:16;1029.4;;;7.1;50
57799;BME280;43626;53.866;30.298;2023-05-01T22:26:18;1029.4;;;7;50.2
57799;BME280;43626;53.866;30.298;2023-05-01T22:32:02;1029.4;;;6.9;50.3
57799;BME280;43626;53.866;30.298;2023-05-01T22:36:34;1029.4;;;6.9;50.1
57799;BME280;43626;53.866;30.298;2023-05-01T22:41:26;1029.4;;;6.8;50
57799;BME280;43626;53.866;30.298;2023-05-01T22:46:16;1029.4;;;6.8;49.8
57799;BME280;43626;53.866;30.298;2023-05-01T22:52:02;1029.5;;;6.8;49.9
57799;BME280;43626;53.866;30.298;2023-05-01T22:56:26;1029.5;;;6.8;50
57799;BME280;43626;53.866;30.298;2023-05-01T23:01:16;1029.5;;;6.7;50.2
57799;BME280;43626;53.866;30.298;2023-05-01T23:07:04;1029.5;;;6.6;50.9
57799;BME280;43626;53.866;30.298;2023-05-01T23:11:29;1029.5;;;6.5;51
57799;BME280;43626;53.866;30.298;2023-05-01T23:17:04;1029.5;;;6.4;51.4
57799;BME280;43626;53.866;30.298;2023-05-01T23:21:16;1029.5;;;6.4;51.8
57799;BME280;43626;53.866;30.298;2023-05-01T23:27:04;1029.5;;;6.4;51.7
57799;BME280;43626;53.866;30.298;2023-05-01T23:32:02;1029.5;;;6.4;51.5
57799;BME280;43626;53.866;30.298;2023-05-01T23:36:56;1029.6;;;6.4;51.2
57799;BME280;43626;53.866;30.298;2023-05-01T23:41:50;1029.6;;;6.3;51.1
57799;BME280;43626;53.866;30.298;2023-05-01T23:46:52;1029.6;;;6.3;51.1
57799;BME280;43626;53.866;30.298;2023-05-01T23:51:52;1029.6;;;6.2;51.2
57799;BME280;43626;53.866;30.298;2023-05-01T23:56:48;1029.6;;;6.2;51.4
